Fort Bridger, Wyoming
Current Conditions -  °F | °C
As of 7:35 AM on Thursday 29 Jan 2015 (Local Time) from KFBR Reporting Station
Haze Haze  
Wind Chill: 25°   Ceiling: Unl
Heat Index: 25°   Visibility: 5mi
Dew Point: 25°   Wind: 0mph
Humidity: 100%   Direction: NA
Pressure: 30.44"   Gusts: NA
Location:  41.32°N, 110.39°W
Report Text: KFBR 291435Z AUTO 00000KT 5SM BR CLR M04/M04 A3044 RMK AO2 T10391039
Loading
Personal Weather Stations






























Interactive Weather Map New forecast layout! Learn more

10-Day Weather Forecast

Advertisements
Track Severe Weather on mobile